createdAt,value
2022-12-03T00:02:16.902Z,101563.28
2022-12-03T00:04:44.080Z,101579.22
2022-12-03T00:07:11.161Z,101572.22
2022-12-03T00:09:38.244Z,101573.03
2022-12-03T00:12:05.618Z,101574.91
2022-12-03T00:14:32.722Z,101568.75
2022-12-03T00:17:00.279Z,101577.63
2022-12-03T00:19:27.385Z,101577.69
2022-12-03T00:21:54.532Z,101576.03
2022-12-03T00:24:21.617Z,101574.28
2022-12-03T00:26:48.749Z,101578.56
2022-12-03T00:29:15.894Z,101576.66
2022-12-03T00:31:45.388Z,101576.84
2022-12-03T00:34:12.575Z,101580.13
2022-12-03T00:36:41.158Z,101569.53
2022-12-03T00:39:08.299Z,101576.59
2022-12-03T00:41:35.450Z,101568.69
2022-12-03T00:44:02.506Z,101573.25
2022-12-03T00:46:29.700Z,101561.84
2022-12-03T00:48:56.913Z,101563.50
2022-12-03T00:51:24.017Z,101574.28
2022-12-03T00:53:51.106Z,101575.97
2022-12-03T00:56:18.207Z,101570.00
2022-12-03T00:58:45.336Z,101567.38
2022-12-03T01:01:12.445Z,101578.09
2022-12-03T01:03:39.571Z,101573.50
2022-12-03T01:06:06.692Z,101571.91
2022-12-03T01:08:33.899Z,101570.25
2022-12-03T01:11:01.113Z,101578.25
2022-12-03T01:13:28.285Z,101577.28
2022-12-03T01:15:55.482Z,101577.28
2022-12-03T01:18:22.619Z,101576.47
2022-12-03T01:20:49.728Z,101573.97
2022-12-03T01:23:16.870Z,101572.53
2022-12-03T01:25:43.965Z,101572.53
2022-12-03T01:28:11.114Z,101581.09
2022-12-03T01:30:58.236Z,101570.88
2022-12-03T01:33:25.404Z,101569.22
2022-12-03T01:35:52.535Z,101564.06
2022-12-03T01:38:19.759Z,101573.72
2022-12-03T01:40:47.081Z,101563.91
2022-12-03T01:43:14.212Z,101562.59
2022-12-03T01:45:41.493Z,101563.25
2022-12-03T01:48:13.534Z,101557.94
2022-12-03T01:50:40.705Z,101549.25
2022-12-03T01:53:11.857Z,101557.28
2022-12-03T01:55:38.997Z,101560.88
2022-12-03T01:58:06.290Z,101553.81
2022-12-03T02:00:33.424Z,101556.63
2022-12-03T02:03:02.559Z,101551.44
2022-12-03T02:05:33.812Z,101554.03
2022-12-03T02:08:01.141Z,101552.31
2022-12-03T02:10:33.781Z,101545.19
2022-12-03T02:13:10.086Z,101536.69
2022-12-03T02:15:40.000Z,101541.69
2022-12-03T02:18:08.906Z,101546.00
2022-12-03T02:20:44.945Z,101538.97
2022-12-03T02:23:43.231Z,101546.06
2022-12-03T02:26:10.541Z,101546.13
2022-12-03T02:28:38.445Z,101547.09
2022-12-03T02:31:06.426Z,101547.03
2022-12-03T02:33:33.856Z,101535.78
2022-12-03T02:36:03.832Z,101531.31
2022-12-03T02:38:33.093Z,101536.53
2022-12-03T02:41:04.732Z,101527.13
2022-12-03T02:43:32.130Z,101526.16
2022-12-03T02:46:01.085Z,101525.16
2022-12-03T02:48:39.981Z,101512.97
2022-12-03T02:51:10.326Z,101526.81
2022-12-03T02:53:44.413Z,101519.00
2022-12-03T02:56:15.296Z,101522.44
2022-12-03T02:58:45.044Z,101526.06
2022-12-03T03:01:12.896Z,101526.97
2022-12-03T03:03:40.406Z,101527.78
2022-12-03T03:06:09.076Z,101534.97
2022-12-03T03:08:38.459Z,101522.66
2022-12-03T03:11:05.919Z,101523.47
2022-12-03T03:13:35.374Z,101518.16
2022-12-03T03:16:05.244Z,101516.56
2022-12-03T03:18:34.058Z,101515.53
2022-12-03T03:21:01.230Z,101514.75
2022-12-03T03:23:28.392Z,101513.91
2022-12-03T03:26:07.701Z,101510.44
2022-12-03T03:28:38.109Z,101495.72
2022-12-03T03:31:08.023Z,101501.03
2022-12-03T03:33:36.582Z,101495.66
2022-12-03T03:36:03.998Z,101496.41
2022-12-03T03:38:31.906Z,101500.13
2022-12-03T03:41:02.002Z,101498.38
2022-12-03T03:43:30.843Z,101494.81
2022-12-03T03:45:58.070Z,101491.28
2022-12-03T03:48:25.286Z,101496.47
2022-12-03T03:50:52.837Z,101496.59
2022-12-03T03:53:21.773Z,101485.91
2022-12-03T03:55:49.872Z,101487.88
2022-12-03T03:58:17.227Z,101488.47
2022-12-03T04:00:45.473Z,101491.09
2022-12-03T04:03:13.420Z,101493.03
2022-12-03T04:05:40.885Z,101492.31
2022-12-03T04:08:08.146Z,101493.19
2022-12-03T04:10:53.526Z,101489.63
2022-12-03T04:13:20.636Z,101491.31
2022-12-03T04:15:48.243Z,101492.16
2022-12-03T04:18:34.152Z,101484.28
2022-12-03T04:21:19.585Z,101493.97
2022-12-03T04:23:46.717Z,101485.97
2022-12-03T04:26:32.794Z,101483.28
2022-12-03T04:28:59.934Z,101475.44
2022-12-03T04:31:45.732Z,101476.25
2022-12-03T04:34:31.462Z,101468.59
2022-12-03T04:36:58.776Z,101470.38
2022-12-03T04:39:25.906Z,101462.28
2022-12-03T04:41:53.055Z,101472.81
2022-12-03T04:44:38.315Z,101468.50
2022-12-03T04:47:15.161Z,101471.09
2022-12-03T04:49:44.784Z,101468.31
2022-12-03T04:52:14.107Z,101467.50
2022-12-03T04:54:41.996Z,101450.81
2022-12-03T04:57:10.372Z,101459.56
2022-12-03T04:59:38.319Z,101461.59
2022-12-03T05:02:06.648Z,101455.50
2022-12-03T05:04:34.306Z,101457.09
2022-12-03T05:07:01.945Z,101457.16
2022-12-03T05:09:29.127Z,101457.22
2022-12-03T05:11:56.294Z,101461.63
2022-12-03T05:14:23.443Z,101469.41
2022-12-03T05:16:50.626Z,101460.50
2022-12-03T05:19:17.813Z,101464.03
2022-12-03T05:21:44.927Z,101455.16
2022-12-03T05:24:12.050Z,101457.03
2022-12-03T05:26:39.141Z,101443.94
2022-12-03T05:29:06.224Z,101442.31
2022-12-03T05:31:33.348Z,101448.38
2022-12-03T05:34:00.501Z,101444.13
2022-12-03T05:36:27.763Z,101449.41
2022-12-03T05:38:54.836Z,101455.44
2022-12-03T05:41:40.292Z,101447.66
2022-12-03T05:44:07.399Z,101454.66
2022-12-03T05:46:34.652Z,101449.25
2022-12-03T05:49:01.846Z,101453.63
2022-12-03T05:51:28.930Z,101444.84
2022-12-03T05:53:57.526Z,101444.84
2022-12-03T05:56:24.701Z,101453.59
2022-12-03T05:58:51.807Z,101439.47
2022-12-03T06:01:18.914Z,101452.69
2022-12-03T06:03:46.147Z,101452.81
2022-12-03T06:06:13.345Z,101443.84
2022-12-03T06:08:40.446Z,101444.66
2022-12-03T06:11:07.513Z,101450.81
2022-12-03T06:13:34.649Z,101453.56
2022-12-03T06:16:01.808Z,101449.09
2022-12-03T06:18:29.605Z,101441.91
2022-12-03T06:20:56.685Z,101456.91
2022-12-03T06:23:23.795Z,101445.41
2022-12-03T06:25:50.941Z,101447.88
2022-12-03T06:28:18.026Z,101441.75
2022-12-03T06:30:45.145Z,101449.72
2022-12-03T06:33:12.344Z,101460.19
2022-12-03T06:35:39.511Z,101447.94
2022-12-03T06:38:06.668Z,101443.56
2022-12-03T06:40:33.769Z,101445.56
2022-12-03T06:43:00.869Z,101437.34
2022-12-03T06:45:27.950Z,101454.16
2022-12-03T06:47:55.087Z,101443.34
2022-12-03T06:50:22.248Z,101446.81
2022-12-03T06:52:49.333Z,101449.59
2022-12-03T06:55:16.600Z,101460.00
2022-12-03T06:57:43.684Z,101458.28
2022-12-03T07:00:11.436Z,101459.28
2022-12-03T07:02:38.574Z,101459.22
2022-12-03T07:05:06.329Z,101444.34
2022-12-03T07:07:33.541Z,101442.59
2022-12-03T07:10:00.765Z,101444.28
2022-12-03T07:12:27.862Z,101447.72
2022-12-03T07:14:55.283Z,101448.63
2022-12-03T07:17:22.584Z,101451.97
2022-12-03T07:19:49.688Z,101451.25
2022-12-03T07:22:16.868Z,101448.91
2022-12-03T07:24:43.979Z,101447.84
2022-12-03T07:27:11.077Z,101447.56
2022-12-03T07:29:38.217Z,101448.00
2022-12-03T07:32:05.651Z,101444.53
2022-12-03T07:34:32.739Z,101442.16
2022-12-03T07:36:59.828Z,101441.97
2022-12-03T07:39:27.003Z,101436.56
2022-12-03T07:41:54.085Z,101437.34
2022-12-03T07:44:21.189Z,101433.88
2022-12-03T07:46:48.527Z,101437.34
2022-12-03T07:49:16.233Z,101426.81
2022-12-03T07:51:45.406Z,101427.09
2022-12-03T07:54:12.533Z,101434.53
2022-12-03T07:56:39.697Z,101426.59
2022-12-03T07:59:06.825Z,101415.63
2022-12-03T08:01:34.025Z,101417.75
2022-12-03T08:04:01.165Z,101420.53
2022-12-03T08:06:28.255Z,101421.38
2022-12-03T08:08:55.385Z,101421.34
2022-12-03T08:11:22.692Z,101420.31
2022-12-03T08:13:49.767Z,101423.97
2022-12-03T08:16:20.337Z,101429.22
2022-12-03T08:18:49.308Z,101423.91
2022-12-03T08:21:19.626Z,101427.72
2022-12-03T08:23:47.261Z,101431.16
2022-12-03T08:26:24.360Z,101433.78
2022-12-03T08:28:53.035Z,101438.13
2022-12-03T08:31:20.563Z,101443.38
2022-12-03T08:33:50.505Z,101439.91
2022-12-03T08:36:25.241Z,101440.34
2022-12-03T08:38:55.891Z,101445.44
2022-12-03T08:41:42.275Z,101452.31
2022-12-03T08:44:25.852Z,101451.75
2022-12-03T08:47:17.538Z,101455.34
2022-12-03T08:49:51.477Z,101467.63
2022-12-03T08:52:23.213Z,101478.78
2022-12-03T08:54:56.197Z,101485.69
2022-12-03T08:57:32.794Z,101479.72
2022-12-03T09:00:24.525Z,101467.56
2022-12-03T09:02:54.377Z,101461.56
2022-12-03T09:05:25.739Z,101458.13
2022-12-03T09:07:52.891Z,101458.94
2022-12-03T09:10:20.072Z,101461.59
2022-12-03T09:12:47.395Z,101460.69
2022-12-03T09:15:14.612Z,101453.28
2022-12-03T09:17:41.690Z,101456.88
2022-12-03T09:20:09.259Z,101468.25
2022-12-03T09:22:36.561Z,101463.94
2022-12-03T09:25:04.024Z,101461.19
2022-12-03T09:27:31.103Z,101460.84
2022-12-03T09:29:58.469Z,101468.03
2022-12-03T09:32:25.913Z,101475.22
2022-12-03T09:34:53.645Z,101478.53
2022-12-03T09:37:22.159Z,101475.72
2022-12-03T09:39:49.418Z,101466.09
2022-12-03T09:42:17.074Z,101474.88
2022-12-03T09:44:44.382Z,101469.84
2022-12-03T09:47:11.662Z,101464.63
2022-12-03T09:49:41.318Z,101459.31
2022-12-03T09:52:11.912Z,101456.25
2022-12-03T09:54:42.811Z,101455.44
2022-12-03T09:57:13.419Z,101458.06
2022-12-03T09:59:40.537Z,101452.75
2022-12-03T10:02:23.275Z,101450.06
2022-12-03T10:04:50.995Z,101441.31
2022-12-03T10:07:18.362Z,101436.78
2022-12-03T10:09:45.509Z,101426.31
2022-12-03T10:12:14.286Z,101419.19
2022-12-03T10:14:42.802Z,101420.13
2022-12-03T10:17:11.719Z,101421.47
2022-12-03T10:19:39.644Z,101419.16
2022-12-03T10:22:06.781Z,101411.63
2022-12-03T10:24:35.788Z,101423.94
2022-12-03T10:27:19.520Z,101420.47
2022-12-03T10:29:56.312Z,101421.63
2022-12-03T10:32:38.961Z,101415.97
2022-12-03T10:35:10.737Z,101419.28
2022-12-03T10:37:54.805Z,101419.06
2022-12-03T10:40:26.117Z,101410.94
2022-12-03T10:43:13.501Z,101411.63
2022-12-03T10:45:41.732Z,101409.06
2022-12-03T10:48:27.367Z,101406.56
2022-12-03T10:51:03.632Z,101397.13
2022-12-03T10:53:33.175Z,101407.91
2022-12-03T10:56:04.057Z,101394.53
2022-12-03T10:58:37.077Z,101395.22
2022-12-03T11:01:14.929Z,101392.50
2022-12-03T11:03:42.250Z,101382.56
2022-12-03T11:06:14.866Z,101392.50
2022-12-03T11:08:45.421Z,101392.44
2022-12-03T11:11:29.968Z,101397.00
2022-12-03T11:13:59.268Z,101397.94
2022-12-03T11:16:41.305Z,101400.00
2022-12-03T11:19:40.203Z,101397.53
2022-12-03T11:22:09.589Z,101384.88
2022-12-03T11:24:38.926Z,101387.28
2022-12-03T11:27:16.831Z,101376.75
2022-12-03T11:29:57.564Z,101376.00
2022-12-03T11:32:43.017Z,101368.84
2022-12-03T11:35:27.738Z,101371.41
2022-12-03T11:37:54.869Z,101360.13
2022-12-03T11:40:21.926Z,101358.34
2022-12-03T11:42:49.283Z,101360.88
2022-12-03T11:45:29.144Z,101355.56
2022-12-03T11:47:59.053Z,101352.75
2022-12-03T11:50:40.123Z,101361.78
2022-12-03T11:53:22.005Z,101363.63
2022-12-03T11:56:06.188Z,101361.22
2022-12-03T11:58:35.718Z,101350.69
2022-12-03T12:01:04.945Z,101358.78
2022-12-03T12:03:35.149Z,101354.63
2022-12-03T12:06:03.169Z,101359.97
2022-12-03T12:08:31.363Z,101357.28
2022-12-03T12:10:59.230Z,101356.84
2022-12-03T12:13:32.400Z,101355.00
2022-12-03T12:16:06.925Z,101353.94
2022-12-03T12:18:45.316Z,101341.91
2022-12-03T12:21:44.267Z,101349.88
2022-12-03T12:24:33.007Z,101348.81
2022-12-03T12:27:11.051Z,101333.63
2022-12-03T12:29:40.088Z,101344.28
2022-12-03T12:32:10.625Z,101338.97
2022-12-03T12:34:48.536Z,101324.19
2022-12-03T12:37:31.189Z,101330.25
2022-12-03T12:39:58.568Z,101319.28
2022-12-03T12:42:37.488Z,101309.66
2022-12-03T12:45:07.531Z,101322.28
2022-12-03T12:48:10.239Z,101321.59
2022-12-03T12:50:38.661Z,101325.75
2022-12-03T12:53:27.035Z,101321.03
2022-12-03T12:55:57.153Z,101305.28
2022-12-03T12:58:25.984Z,101307.25
2022-12-03T13:00:58.812Z,101312.28
2022-12-03T13:03:29.188Z,101309.41
2022-12-03T13:05:57.599Z,101312.22
2022-12-03T13:08:30.127Z,101312.28
2022-12-03T13:10:59.670Z,101303.66
2022-12-03T13:13:43.679Z,101300.59
2022-12-03T13:16:18.204Z,101302.91
2022-12-03T13:18:53.054Z,101296.31
2022-12-03T13:21:40.649Z,101296.81
2022-12-03T13:24:29.462Z,101290.97
2022-12-03T13:26:57.641Z,101287.81
2022-12-03T13:29:26.665Z,101288.47
2022-12-03T13:31:59.824Z,101289.72
2022-12-03T13:34:32.289Z,101287.47
2022-12-03T13:37:01.351Z,101286.22
2022-12-03T13:39:40.605Z,101274.16
2022-12-03T13:42:40.810Z,101278.78
2022-12-03T13:45:13.919Z,101275.00
2022-12-03T13:47:40.949Z,101269.72
2022-12-03T13:50:26.887Z,101272.66
2022-12-03T13:52:55.029Z,101257.91
2022-12-03T13:55:26.350Z,101268.16
2022-12-03T13:57:53.899Z,101265.41
2022-12-03T14:00:21.369Z,101264.56
2022-12-03T14:02:48.681Z,101265.28
2022-12-03T14:05:15.910Z,101274.84
2022-12-03T14:07:43.126Z,101269.50
2022-12-03T14:10:11.870Z,101270.69
2022-12-03T14:12:38.981Z,101270.50
2022-12-03T14:15:06.933Z,101258.41
2022-12-03T14:17:34.072Z,101263.63
2022-12-03T14:20:01.671Z,101266.34
2022-12-03T14:22:29.488Z,101270.69
2022-12-03T14:24:57.593Z,101265.53
2022-12-03T14:27:24.859Z,101267.88
2022-12-03T14:29:52.529Z,101266.91
2022-12-03T14:32:19.993Z,101264.28
2022-12-03T14:34:48.077Z,101267.31
2022-12-03T14:37:15.361Z,101266.91
2022-12-03T14:39:42.548Z,101265.22
2022-12-03T14:42:16.801Z,101257.75
2022-12-03T14:44:47.589Z,101261.53
2022-12-03T14:47:16.367Z,101256.38
2022-12-03T14:49:43.792Z,101255.31
2022-12-03T14:52:12.398Z,101259.56
2022-12-03T14:54:42.292Z,101260.41
2022-12-03T14:57:12.332Z,101270.22
2022-12-03T14:59:43.329Z,101268.81
2022-12-03T15:02:11.680Z,101267.72
2022-12-03T15:04:39.707Z,101267.16
2022-12-03T15:07:07.054Z,101267.84
2022-12-03T15:09:34.290Z,101265.13
2022-12-03T15:12:03.988Z,101262.44
2022-12-03T15:14:31.148Z,101263.22
2022-12-03T15:16:58.463Z,101257.03
2022-12-03T15:19:25.668Z,101253.56
2022-12-03T15:21:52.745Z,101258.91
2022-12-03T15:24:19.881Z,101258.75
2022-12-03T15:26:47.013Z,101254.72
2022-12-03T15:29:14.168Z,101259.75
2022-12-03T15:31:41.375Z,101260.19
2022-12-03T15:34:08.908Z,101267.25
2022-12-03T15:36:36.092Z,101267.09
2022-12-03T15:39:03.829Z,101266.31
2022-12-03T15:41:31.117Z,101274.97
2022-12-03T15:44:01.490Z,101277.47
2022-12-03T15:46:28.763Z,101273.97
2022-12-03T15:48:55.889Z,101277.47
2022-12-03T15:51:24.089Z,101285.56
2022-12-03T15:53:51.786Z,101280.28
2022-12-03T15:56:19.172Z,101280.28
2022-12-03T15:58:46.369Z,101276.06
2022-12-03T16:01:13.874Z,101277.22
2022-12-03T16:03:41.690Z,101282.47
2022-12-03T16:06:08.970Z,101281.50
2022-12-03T16:08:36.103Z,101284.03
2022-12-03T16:11:04.209Z,101289.41
2022-12-03T16:13:31.529Z,101283.19
2022-12-03T16:15:58.683Z,101281.72
2022-12-03T16:18:25.776Z,101288.47
2022-12-03T16:20:52.912Z,101290.22
2022-12-03T16:23:19.980Z,101294.84
2022-12-03T16:25:47.150Z,101293.91
2022-12-03T16:28:14.295Z,101293.25
2022-12-03T16:30:41.777Z,101291.38
2022-12-03T16:33:08.905Z,101294.03
2022-12-03T16:35:35.972Z,101288.81
2022-12-03T16:38:03.120Z,101287.06
2022-12-03T16:40:30.295Z,101287.84
2022-12-03T16:42:57.443Z,101295.81
2022-12-03T16:45:33.170Z,101294.09
2022-12-03T16:48:01.647Z,101301.81
2022-12-03T16:50:30.313Z,101296.47
2022-12-03T16:52:58.190Z,101290.69
2022-12-03T16:55:25.546Z,101290.72
2022-12-03T16:57:52.665Z,101290.47
2022-12-03T17:00:21.830Z,101286.94
2022-12-03T17:02:49.035Z,101287.97
2022-12-03T17:05:16.319Z,101284.69
2022-12-03T17:07:43.482Z,101284.28
2022-12-03T17:10:11.309Z,101286.75
2022-12-03T17:13:07.577Z,101284.28
2022-12-03T17:15:25.539Z,101287.78
2022-12-03T17:17:53.533Z,101288.66
2022-12-03T17:20:20.615Z,101284.22
2022-12-03T17:22:47.729Z,101287.66
2022-12-03T17:25:14.916Z,101293.84
2022-12-03T17:27:45.380Z,101293.00
2022-12-03T17:30:13.358Z,101288.50
2022-12-03T17:32:40.528Z,101293.00
2022-12-03T17:35:08.529Z,101293.03
2022-12-03T17:37:36.279Z,101300.03
2022-12-03T17:40:08.191Z,101293.84
2022-12-03T17:42:35.594Z,101291.38
2022-12-03T17:45:02.815Z,101288.47
2022-12-03T17:47:29.915Z,101288.50
2022-12-03T17:49:57.480Z,101289.50
2022-12-03T17:52:24.795Z,101289.50
2022-12-03T17:57:39.062Z,101282.50
2022-12-03T18:00:06.943Z,101280.66
2022-12-03T18:02:39.489Z,101276.47
2022-12-03T18:05:06.862Z,101276.22
2022-12-03T18:07:34.064Z,101276.00
2022-12-03T18:10:01.250Z,101272.66
2022-12-03T18:12:28.380Z,101262.13
2022-12-03T18:14:55.460Z,101270.13
2022-12-03T18:17:23.916Z,101269.03
2022-12-03T18:19:51.022Z,101268.22
2022-12-03T18:22:18.440Z,101263.94
2022-12-03T18:24:47.612Z,101266.31
2022-12-03T18:27:17.463Z,101261.13
2022-12-03T18:29:44.569Z,101259.59
2022-12-03T18:32:27.723Z,101261.16
2022-12-03T18:34:55.983Z,101256.88
2022-12-03T18:37:28.573Z,101250.63
2022-12-03T18:39:57.154Z,101255.97
2022-12-03T18:42:24.930Z,101259.41
2022-12-03T18:44:54.908Z,101257.63
2022-12-03T18:47:25.210Z,101260.06
2022-12-03T18:49:52.602Z,101257.44
2022-12-03T18:52:21.942Z,101255.38
2022-12-03T18:54:49.305Z,101259.59
2022-12-03T18:57:17.824Z,101260.72
2022-12-03T18:59:45.078Z,101251.28
2022-12-03T19:05:09.193Z,101260.00
2022-12-03T19:07:36.808Z,101259.25
2022-12-03T19:10:04.891Z,101253.00
2022-12-03T19:12:32.685Z,101258.19
2022-12-03T19:14:59.944Z,101248.59
2022-12-03T19:17:27.524Z,101257.50
2022-12-03T19:19:55.319Z,101267.31
2022-12-03T19:22:23.021Z,101265.44
2022-12-03T19:24:50.640Z,101256.56
2022-12-03T19:27:18.261Z,101267.25
2022-12-03T19:29:48.528Z,101274.97
2022-12-03T19:32:15.728Z,101271.59
2022-12-03T19:34:42.885Z,101260.97
2022-12-03T19:37:09.968Z,101258.19
2022-12-03T19:39:37.118Z,101251.44
2022-12-03T19:42:04.329Z,101247.00
2022-12-03T19:44:31.524Z,101251.34
2022-12-03T19:46:58.645Z,101252.16
2022-12-03T19:49:25.795Z,101252.00
2022-12-03T19:51:53.145Z,101255.53
2022-12-03T19:54:20.296Z,101248.72
2022-12-03T19:56:47.378Z,101247.72
2022-12-03T19:59:14.655Z,101249.44
2022-12-03T20:01:43.068Z,101257.38
2022-12-03T20:04:11.537Z,101252.91
2022-12-03T20:06:39.104Z,101252.91
2022-12-03T20:09:13.072Z,101239.06
2022-12-03T20:11:41.315Z,101237.19
2022-12-03T20:14:12.556Z,101249.44
2022-12-03T20:16:39.874Z,101255.47
2022-12-03T20:19:09.929Z,101243.94
2022-12-03T20:21:38.728Z,101245.56
2022-12-03T20:24:07.839Z,101242.09
2022-12-03T20:26:34.954Z,101240.47
2022-12-03T20:29:02.423Z,101242.94
2022-12-03T20:31:31.465Z,101231.06
2022-12-03T20:34:02.097Z,101231.19
2022-12-03T20:36:31.013Z,101225.88
2022-12-03T20:39:05.501Z,101213.53
2022-12-03T20:41:35.868Z,101222.91
2022-12-03T20:44:03.703Z,101219.63
2022-12-03T20:46:31.361Z,101224.75
2022-12-03T20:48:59.059Z,101223.94
2022-12-03T20:51:30.727Z,101218.28
2022-12-03T20:53:59.860Z,101219.06
2022-12-03T20:56:31.206Z,101218.41
2022-12-03T20:59:08.112Z,101213.03
2022-12-03T21:01:36.186Z,101211.22
2022-12-03T21:04:04.834Z,101219.03
2022-12-03T21:06:34.017Z,101205.19
2022-12-03T21:09:02.468Z,101200.75
2022-12-03T21:11:31.651Z,101199.69
2022-12-03T21:14:00.189Z,101210.38
2022-12-03T21:17:05.664Z,101212.88
2022-12-03T21:19:20.267Z,101219.59
2022-12-03T21:21:47.409Z,101205.63
2022-12-03T21:24:14.905Z,101210.25
2022-12-03T21:26:42.050Z,101217.13
2022-12-03T21:29:09.201Z,101213.78
2022-12-03T21:31:38.245Z,101209.22
2022-12-03T21:34:05.497Z,101211.78
2022-12-03T21:36:32.677Z,101215.19
2022-12-03T21:38:59.910Z,101209.41
2022-12-03T21:41:27.225Z,101217.31
2022-12-03T21:43:54.375Z,101224.34
2022-12-03T21:47:11.764Z,101225.47
2022-12-03T21:49:08.812Z,101218.16
2022-12-03T21:51:35.937Z,101226.06
2022-12-03T21:54:03.237Z,101240.78
2022-12-03T21:56:31.777Z,101238.06
2022-12-03T21:58:58.970Z,101226.59
2022-12-03T22:01:26.430Z,101227.38
2022-12-03T22:03:53.597Z,101222.50
2022-12-03T22:06:20.800Z,101226.84
2022-12-03T22:08:48.559Z,101225.13
2022-12-03T22:11:24.199Z,101235.44
2022-12-03T22:13:51.538Z,101224.28
2022-12-03T22:16:21.012Z,101210.25
2022-12-03T22:18:48.814Z,101223.56
2022-12-03T22:21:18.707Z,101214.94
2022-12-03T22:23:46.413Z,101212.16
2022-12-03T22:26:18.212Z,101201.56
2022-12-03T22:28:47.080Z,101202.41
2022-12-03T22:31:15.199Z,101193.69
2022-12-03T22:33:43.429Z,101187.38
2022-12-03T22:36:19.740Z,101176.19
2022-12-03T22:38:48.989Z,101164.44
2022-12-03T22:41:17.257Z,101159.66
2022-12-03T22:43:44.939Z,101156.59
2022-12-03T22:46:12.853Z,101154.88
2022-12-03T22:48:42.270Z,101155.28
2022-12-03T22:51:17.601Z,101143.56
2022-12-03T22:53:44.872Z,101136.41
2022-12-03T22:56:12.172Z,101147.03
2022-12-03T22:58:40.259Z,101156.41
2022-12-03T23:01:08.266Z,101161.69
2022-12-03T23:03:36.871Z,101162.41
2022-12-03T23:06:11.427Z,101155.78
2022-12-03T23:08:38.734Z,101156.19
2022-12-03T23:11:06.115Z,101150.13
2022-12-03T23:13:33.250Z,101147.50
2022-12-03T23:16:00.403Z,101149.34
2022-12-03T23:18:27.621Z,101153.41
2022-12-03T23:20:56.562Z,101141.22
2022-12-03T23:23:26.081Z,101132.44
2022-12-03T23:26:08.688Z,101122.63
2022-12-03T23:28:37.513Z,101114.00
2022-12-03T23:31:06.009Z,101123.53
2022-12-03T23:33:38.218Z,101111.34
2022-12-03T23:36:06.584Z,101106.69
2022-12-03T23:38:33.733Z,101085.50
2022-12-03T23:41:05.840Z,101093.63
2022-12-03T23:43:32.957Z,101094.53
2022-12-03T23:46:14.735Z,101094.41
2022-12-03T23:48:42.588Z,101074.22
2022-12-03T23:51:14.155Z,101061.78
2022-12-03T23:53:41.949Z,101059.97
2022-12-03T23:56:15.561Z,101050.44
2022-12-03T23:58:43.511Z,101039.03
